sensor_id;sensor_type;location;lat;lon;timestamp;P1;durP1;ratioP1;P2;durP2;ratioP2
579;SDS011;276;48.392;9.950;2023-07-16T00:00:57;6.57;;;5.97;;
579;SDS011;276;48.392;9.950;2023-07-16T00:03:22;7.03;;;6.43;;
579;SDS011;276;48.392;9.950;2023-07-16T00:05:53;6.50;;;6.00;;
579;SDS011;276;48.392;9.950;2023-07-16T00:08:18;7.57;;;7.07;;
579;SDS011;276;48.392;9.950;2023-07-16T00:10:46;6.87;;;6.27;;
579;SDS011;276;48.392;9.950;2023-07-16T00:13:14;6.90;;;6.40;;
579;SDS011;276;48.392;9.950;2023-07-16T00:15:42;8.30;;;7.60;;
579;SDS011;276;48.392;9.950;2023-07-16T00:18:08;7.30;;;6.67;;
579;SDS011;276;48.392;9.950;2023-07-16T00:20:36;7.73;;;7.03;;
579;SDS011;276;48.392;9.950;2023-07-16T00:23:01;8.27;;;7.43;;
579;SDS011;276;48.392;9.950;2023-07-16T00:25:27;9.23;;;8.43;;
579;SDS011;276;48.392;9.950;2023-07-16T00:27:53;7.57;;;7.00;;
579;SDS011;276;48.392;9.950;2023-07-16T00:30:18;8.87;;;7.97;;
579;SDS011;276;48.392;9.950;2023-07-16T00:32:47;9.07;;;8.37;;
579;SDS011;276;48.392;9.950;2023-07-16T00:35:17;7.97;;;7.33;;
579;SDS011;276;48.392;9.950;2023-07-16T00:37:45;8.80;;;8.10;;
579;SDS011;276;48.392;9.950;2023-07-16T00:40:13;8.17;;;7.43;;
579;SDS011;276;48.392;9.950;2023-07-16T00:42:38;7.97;;;7.37;;
579;SDS011;276;48.392;9.950;2023-07-16T00:45:04;8.97;;;8.07;;
579;SDS011;276;48.392;9.950;2023-07-16T00:47:36;7.33;;;6.63;;
579;SDS011;276;48.392;9.950;2023-07-16T00:50:01;7.87;;;7.27;;
579;SDS011;276;48.392;9.950;2023-07-16T00:52:27;8.10;;;7.40;;
579;SDS011;276;48.392;9.950;2023-07-16T00:54:59;9.23;;;8.33;;
579;SDS011;276;48.392;9.950;2023-07-16T00:57:25;8.53;;;7.73;;
579;SDS011;276;48.392;9.950;2023-07-16T00:59:53;9.00;;;8.30;;
579;SDS011;276;48.392;9.950;2023-07-16T01:02:18;7.73;;;7.13;;
579;SDS011;276;48.392;9.950;2023-07-16T01:04:44;7.47;;;6.87;;
579;SDS011;276;48.392;9.950;2023-07-16T01:07:12;8.77;;;7.97;;
579;SDS011;276;48.392;9.950;2023-07-16T01:09:41;7.93;;;7.23;;
579;SDS011;276;48.392;9.950;2023-07-16T01:12:08;8.17;;;7.57;;
579;SDS011;276;48.392;9.950;2023-07-16T01:14:37;8.30;;;7.50;;
579;SDS011;276;48.392;9.950;2023-07-16T01:17:04;7.90;;;7.30;;
579;SDS011;276;48.392;9.950;2023-07-16T01:19:32;6.97;;;6.47;;
579;SDS011;276;48.392;9.950;2023-07-16T01:22:16;5.67;;;5.17;;
579;SDS011;276;48.392;9.950;2023-07-16T01:30:42;5.03;;;4.63;;
579;SDS011;276;48.392;9.950;2023-07-16T01:33:09;4.53;;;4.13;;
579;SDS011;276;48.392;9.950;2023-07-16T01:35:40;4.10;;;3.70;;
579;SDS011;276;48.392;9.950;2023-07-16T01:38:08;2.90;;;2.70;;
579;SDS011;276;48.392;9.950;2023-07-16T01:40:35;3.20;;;2.90;;
579;SDS011;276;48.392;9.950;2023-07-16T01:43:03;4.37;;;4.07;;
579;SDS011;276;48.392;9.950;2023-07-16T01:45:31;3.40;;;3.20;;
579;SDS011;276;48.392;9.950;2023-07-16T01:48:17;2.80;;;2.60;;
579;SDS011;276;48.392;9.950;2023-07-16T01:50:54;3.20;;;2.90;;
579;SDS011;276;48.392;9.950;2023-07-16T01:53:22;2.60;;;2.40;;
579;SDS011;276;48.392;9.950;2023-07-16T01:55:48;2.40;;;2.23;;
579;SDS011;276;48.392;9.950;2023-07-16T01:58:15;2.40;;;2.20;;
579;SDS011;276;48.392;9.950;2023-07-16T02:00:41;2.20;;;1.97;;
579;SDS011;276;48.392;9.950;2023-07-16T02:03:07;2.47;;;2.27;;
579;SDS011;276;48.392;9.950;2023-07-16T02:05:33;2.53;;;2.30;;
579;SDS011;276;48.392;9.950;2023-07-16T02:07:58;3.13;;;2.50;;
579;SDS011;276;48.392;9.950;2023-07-16T02:10:26;2.23;;;2.00;;
579;SDS011;276;48.392;9.950;2023-07-16T02:12:52;4.10;;;2.60;;
579;SDS011;276;48.392;9.950;2023-07-16T02:15:20;2.30;;;1.57;;
579;SDS011;276;48.392;9.950;2023-07-16T02:17:48;2.20;;;2.03;;
579;SDS011;276;48.392;9.950;2023-07-16T02:20:16;3.60;;;2.30;;
579;SDS011;276;48.392;9.950;2023-07-16T02:22:42;2.83;;;2.00;;
579;SDS011;276;48.392;9.950;2023-07-16T02:25:07;2.13;;;1.93;;
579;SDS011;276;48.392;9.950;2023-07-16T02:27:35;3.70;;;2.07;;
579;SDS011;276;48.392;9.950;2023-07-16T02:30:01;2.50;;;2.30;;
579;SDS011;276;48.392;9.950;2023-07-16T02:32:27;2.10;;;2.00;;
579;SDS011;276;48.392;9.950;2023-07-16T02:34:53;1.67;;;1.57;;
579;SDS011;276;48.392;9.950;2023-07-16T02:37:20;2.07;;;1.97;;
579;SDS011;276;48.392;9.950;2023-07-16T02:39:46;2.10;;;1.90;;
579;SDS011;276;48.392;9.950;2023-07-16T02:42:14;1.93;;;1.63;;
579;SDS011;276;48.392;9.950;2023-07-16T02:44:40;2.13;;;1.83;;
579;SDS011;276;48.392;9.950;2023-07-16T02:47:10;3.13;;;1.97;;
579;SDS011;276;48.392;9.950;2023-07-16T02:49:37;1.93;;;1.77;;
579;SDS011;276;48.392;9.950;2023-07-16T02:52:06;5.57;;;2.03;;
579;SDS011;276;48.392;9.950;2023-07-16T02:54:35;2.27;;;2.07;;
579;SDS011;276;48.392;9.950;2023-07-16T02:57:04;1.97;;;1.60;;
579;SDS011;276;48.392;9.950;2023-07-16T02:59:30;2.50;;;2.30;;
579;SDS011;276;48.392;9.950;2023-07-16T03:01:56;3.33;;;2.33;;
579;SDS011;276;48.392;9.950;2023-07-16T03:04:21;1.90;;;1.80;;
579;SDS011;276;48.392;9.950;2023-07-16T03:06:49;2.27;;;2.07;;
579;SDS011;276;48.392;9.950;2023-07-16T03:09:15;2.00;;;1.77;;
579;SDS011;276;48.392;9.950;2023-07-16T03:11:45;1.60;;;1.30;;
579;SDS011;276;48.392;9.950;2023-07-16T03:14:13;5.10;;;1.97;;
579;SDS011;276;48.392;9.950;2023-07-16T03:16:40;2.47;;;1.77;;
579;SDS011;276;48.392;9.950;2023-07-16T03:19:06;2.40;;;1.90;;
579;SDS011;276;48.392;9.950;2023-07-16T03:21:34;2.80;;;2.33;;
579;SDS011;276;48.392;9.950;2023-07-16T03:24:02;3.97;;;2.17;;
579;SDS011;276;48.392;9.950;2023-07-16T03:26:27;2.27;;;2.17;;
579;SDS011;276;48.392;9.950;2023-07-16T03:28:53;3.37;;;1.70;;
579;SDS011;276;48.392;9.950;2023-07-16T03:31:20;3.67;;;1.80;;
579;SDS011;276;48.392;9.950;2023-07-16T03:33:45;1.43;;;1.33;;
579;SDS011;276;48.392;9.950;2023-07-16T03:36:11;2.63;;;2.00;;
579;SDS011;276;48.392;9.950;2023-07-16T03:38:37;2.10;;;2.00;;
579;SDS011;276;48.392;9.950;2023-07-16T03:41:02;3.23;;;1.90;;
579;SDS011;276;48.392;9.950;2023-07-16T03:43:28;2.90;;;2.00;;
579;SDS011;276;48.392;9.950;2023-07-16T03:45:53;2.50;;;2.30;;
579;SDS011;276;48.392;9.950;2023-07-16T03:48:19;2.57;;;2.20;;
579;SDS011;276;48.392;9.950;2023-07-16T03:50:47;1.83;;;1.73;;
579;SDS011;276;48.392;9.950;2023-07-16T03:53:15;3.20;;;2.53;;
579;SDS011;276;48.392;9.950;2023-07-16T03:55:43;2.33;;;2.13;;
579;SDS011;276;48.392;9.950;2023-07-16T03:58:09;2.50;;;2.30;;
579;SDS011;276;48.392;9.950;2023-07-16T04:00:37;2.23;;;2.03;;
579;SDS011;276;48.392;9.950;2023-07-16T04:03:02;2.60;;;2.30;;
579;SDS011;276;48.392;9.950;2023-07-16T04:05:30;3.23;;;2.63;;
579;SDS011;276;48.392;9.950;2023-07-16T04:07:56;2.93;;;2.63;;
579;SDS011;276;48.392;9.950;2023-07-16T04:10:23;2.20;;;2.00;;
579;SDS011;276;48.392;9.950;2023-07-16T04:12:51;2.37;;;1.90;;
579;SDS011;276;48.392;9.950;2023-07-16T04:15:24;2.13;;;1.73;;
579;SDS011;276;48.392;9.950;2023-07-16T04:17:52;2.83;;;1.63;;
579;SDS011;276;48.392;9.950;2023-07-16T04:20:18;3.17;;;2.57;;
579;SDS011;276;48.392;9.950;2023-07-16T04:22:43;2.30;;;2.10;;
579;SDS011;276;48.392;9.950;2023-07-16T04:25:09;2.13;;;1.93;;
579;SDS011;276;48.392;9.950;2023-07-16T04:27:34;2.17;;;1.97;;
579;SDS011;276;48.392;9.950;2023-07-16T04:30:02;3.53;;;2.30;;
579;SDS011;276;48.392;9.950;2023-07-16T04:32:28;2.43;;;1.83;;
579;SDS011;276;48.392;9.950;2023-07-16T04:34:59;2.10;;;2.00;;
579;SDS011;276;48.392;9.950;2023-07-16T04:37:25;3.20;;;1.90;;
579;SDS011;276;48.392;9.950;2023-07-16T04:39:51;2.60;;;2.40;;
579;SDS011;276;48.392;9.950;2023-07-16T04:42:18;2.07;;;1.97;;
579;SDS011;276;48.392;9.950;2023-07-16T04:44:46;2.50;;;2.30;;
579;SDS011;276;48.392;9.950;2023-07-16T04:47:12;2.97;;;2.77;;
579;SDS011;276;48.392;9.950;2023-07-16T04:49:38;2.67;;;2.47;;
579;SDS011;276;48.392;9.950;2023-07-16T04:52:03;2.70;;;2.50;;
579;SDS011;276;48.392;9.950;2023-07-16T04:54:34;2.37;;;2.20;;
579;SDS011;276;48.392;9.950;2023-07-16T04:57:03;2.40;;;2.03;;
579;SDS011;276;48.392;9.950;2023-07-16T04:59:29;1.97;;;1.87;;
579;SDS011;276;48.392;9.950;2023-07-16T05:01:55;1.93;;;1.73;;
579;SDS011;276;48.392;9.950;2023-07-16T05:04:20;1.73;;;1.63;;
579;SDS011;276;48.392;9.950;2023-07-16T05:06:48;1.97;;;1.83;;
579;SDS011;276;48.392;9.950;2023-07-16T05:09:14;5.97;;;1.90;;
579;SDS011;276;48.392;9.950;2023-07-16T05:11:44;2.47;;;1.80;;
579;SDS011;276;48.392;9.950;2023-07-16T05:14:10;3.13;;;2.40;;
579;SDS011;276;48.392;9.950;2023-07-16T05:16:37;1.83;;;1.63;;
579;SDS011;276;48.392;9.950;2023-07-16T05:19:03;2.37;;;2.17;;
579;SDS011;276;48.392;9.950;2023-07-16T05:21:28;2.67;;;2.47;;
579;SDS011;276;48.392;9.950;2023-07-16T05:23:56;2.13;;;1.93;;
579;SDS011;276;48.392;9.950;2023-07-16T05:26:24;3.03;;;1.90;;
579;SDS011;276;48.392;9.950;2023-07-16T05:28:50;7.10;;;2.43;;
579;SDS011;276;48.392;9.950;2023-07-16T05:31:17;2.73;;;2.53;;
579;SDS011;276;48.392;9.950;2023-07-16T05:33:43;4.00;;;2.27;;
579;SDS011;276;48.392;9.950;2023-07-16T05:36:11;4.83;;;2.50;;
579;SDS011;276;48.392;9.950;2023-07-16T05:38:37;2.97;;;2.10;;
579;SDS011;276;48.392;9.950;2023-07-16T05:41:03;2.07;;;1.93;;
579;SDS011;276;48.392;9.950;2023-07-16T05:43:29;2.70;;;2.37;;
579;SDS011;276;48.392;9.950;2023-07-16T05:45:56;2.83;;;2.30;;
579;SDS011;276;48.392;9.950;2023-07-16T05:48:21;2.40;;;2.20;;
579;SDS011;276;48.392;9.950;2023-07-16T05:50:47;3.40;;;2.70;;
579;SDS011;276;48.392;9.950;2023-07-16T05:53:12;2.80;;;2.20;;
579;SDS011;276;48.392;9.950;2023-07-16T05:55:41;5.30;;;2.77;;
579;SDS011;276;48.392;9.950;2023-07-16T05:58:07;6.50;;;5.80;;
579;SDS011;276;48.392;9.950;2023-07-16T06:00:33;6.67;;;3.87;;
579;SDS011;276;48.392;9.950;2023-07-16T06:03:02;5.83;;;5.40;;
579;SDS011;276;48.392;9.950;2023-07-16T06:05:30;8.23;;;3.70;;
579;SDS011;276;48.392;9.950;2023-07-16T06:07:59;2.20;;;2.10;;
579;SDS011;276;48.392;9.950;2023-07-16T06:10:26;2.37;;;2.20;;
579;SDS011;276;48.392;9.950;2023-07-16T06:12:51;2.50;;;2.30;;
579;SDS011;276;48.392;9.950;2023-07-16T06:15:17;2.70;;;2.23;;
579;SDS011;276;48.392;9.950;2023-07-16T06:17:42;2.90;;;2.03;;
579;SDS011;276;48.392;9.950;2023-07-16T06:20:10;1.87;;;1.77;;
579;SDS011;276;48.392;9.950;2023-07-16T06:22:36;3.13;;;1.90;;
579;SDS011;276;48.392;9.950;2023-07-16T06:25:02;1.90;;;1.80;;
579;SDS011;276;48.392;9.950;2023-07-16T06:27:29;3.47;;;2.10;;
579;SDS011;276;48.392;9.950;2023-07-16T06:29:55;3.17;;;1.73;;
579;SDS011;276;48.392;9.950;2023-07-16T06:32:20;1.80;;;1.70;;
579;SDS011;276;48.392;9.950;2023-07-16T06:34:48;2.67;;;2.47;;
579;SDS011;276;48.392;9.950;2023-07-16T06:37:14;1.90;;;1.77;;
579;SDS011;276;48.392;9.950;2023-07-16T06:39:39;2.53;;;2.33;;
579;SDS011;276;48.392;9.950;2023-07-16T06:42:07;2.70;;;2.20;;
579;SDS011;276;48.392;9.950;2023-07-16T06:44:33;2.33;;;2.13;;
579;SDS011;276;48.392;9.950;2023-07-16T06:47:01;2.40;;;2.30;;
579;SDS011;276;48.392;9.950;2023-07-16T06:49:27;2.30;;;2.00;;
579;SDS011;276;48.392;9.950;2023-07-16T06:51:52;2.40;;;1.47;;
579;SDS011;276;48.392;9.950;2023-07-16T06:54:22;3.57;;;2.37;;
579;SDS011;276;48.392;9.950;2023-07-16T06:56:48;2.20;;;2.00;;
579;SDS011;276;48.392;9.950;2023-07-16T06:59:13;1.80;;;1.70;;
579;SDS011;276;48.392;9.950;2023-07-16T07:01:39;1.50;;;1.40;;
579;SDS011;276;48.392;9.950;2023-07-16T07:04:05;2.07;;;1.70;;
579;SDS011;276;48.392;9.950;2023-07-16T07:06:30;2.30;;;2.10;;
579;SDS011;276;48.392;9.950;2023-07-16T07:08:56;2.20;;;2.00;;
579;SDS011;276;48.392;9.950;2023-07-16T07:11:24;2.40;;;2.07;;
579;SDS011;276;48.392;9.950;2023-07-16T07:13:51;2.93;;;2.40;;
579;SDS011;276;48.392;9.950;2023-07-16T07:16:17;3.17;;;2.90;;
579;SDS011;276;48.392;9.950;2023-07-16T07:18:44;3.50;;;3.30;;
579;SDS011;276;48.392;9.950;2023-07-16T07:21:10;3.33;;;2.60;;
579;SDS011;276;48.392;9.950;2023-07-16T07:23:35;2.73;;;2.53;;
579;SDS011;276;48.392;9.950;2023-07-16T07:26:01;2.90;;;2.57;;
579;SDS011;276;48.392;9.950;2023-07-16T07:28:27;2.73;;;2.00;;
579;SDS011;276;48.392;9.950;2023-07-16T07:30:53;3.20;;;2.90;;
579;SDS011;276;48.392;9.950;2023-07-16T07:33:19;5.00;;;3.20;;
579;SDS011;276;48.392;9.950;2023-07-16T07:35:45;3.93;;;3.63;;
579;SDS011;276;48.392;9.950;2023-07-16T07:38:10;3.10;;;2.90;;
579;SDS011;276;48.392;9.950;2023-07-16T07:40:38;3.07;;;2.87;;
579;SDS011;276;48.392;9.950;2023-07-16T07:43:07;2.77;;;2.57;;
579;SDS011;276;48.392;9.950;2023-07-16T07:45:32;2.10;;;2.00;;
579;SDS011;276;48.392;9.950;2023-07-16T07:47:58;2.60;;;2.40;;
579;SDS011;276;48.392;9.950;2023-07-16T07:50:26;2.63;;;2.43;;
579;SDS011;276;48.392;9.950;2023-07-16T07:52:51;3.80;;;2.47;;
579;SDS011;276;48.392;9.950;2023-07-16T07:55:19;2.70;;;2.50;;
579;SDS011;276;48.392;9.950;2023-07-16T07:57:47;2.53;;;2.30;;
579;SDS011;276;48.392;9.950;2023-07-16T08:00:13;2.53;;;2.33;;
579;SDS011;276;48.392;9.950;2023-07-16T08:02:39;2.07;;;1.93;;
579;SDS011;276;48.392;9.950;2023-07-16T08:05:07;1.77;;;1.67;;
579;SDS011;276;48.392;9.950;2023-07-16T08:07:33;2.13;;;1.83;;
579;SDS011;276;48.392;9.950;2023-07-16T08:09:59;2.33;;;2.13;;
579;SDS011;276;48.392;9.950;2023-07-16T08:12:24;2.30;;;2.07;;
579;SDS011;276;48.392;9.950;2023-07-16T08:14:50;2.60;;;2.40;;
579;SDS011;276;48.392;9.950;2023-07-16T08:17:16;2.70;;;2.50;;
579;SDS011;276;48.392;9.950;2023-07-16T08:19:41;3.07;;;2.87;;
579;SDS011;276;48.392;9.950;2023-07-16T08:22:07;4.30;;;4.00;;
579;SDS011;276;48.392;9.950;2023-07-16T08:24:35;4.33;;;3.80;;
579;SDS011;276;48.392;9.950;2023-07-16T08:27:03;3.07;;;2.87;;
579;SDS011;276;48.392;9.950;2023-07-16T08:29:31;3.87;;;3.00;;
579;SDS011;276;48.392;9.950;2023-07-16T08:31:59;3.17;;;2.87;;
579;SDS011;276;48.392;9.950;2023-07-16T08:34:25;3.40;;;3.10;;
579;SDS011;276;48.392;9.950;2023-07-16T08:36:50;4.77;;;4.47;;
579;SDS011;276;48.392;9.950;2023-07-16T08:39:16;6.80;;;6.30;;
579;SDS011;276;48.392;9.950;2023-07-16T08:41:44;5.77;;;5.37;;
579;SDS011;276;48.392;9.950;2023-07-16T08:44:10;4.20;;;3.90;;
579;SDS011;276;48.392;9.950;2023-07-16T08:46:37;3.47;;;3.23;;
579;SDS011;276;48.392;9.950;2023-07-16T08:49:04;3.70;;;3.50;;
579;SDS011;276;48.392;9.950;2023-07-16T08:51:32;3.60;;;3.40;;
579;SDS011;276;48.392;9.950;2023-07-16T08:53:59;2.87;;;2.70;;
579;SDS011;276;48.392;9.950;2023-07-16T08:56:28;3.07;;;2.77;;
579;SDS011;276;48.392;9.950;2023-07-16T08:58:54;6.47;;;5.87;;
579;SDS011;276;48.392;9.950;2023-07-16T09:01:23;6.50;;;5.97;;
579;SDS011;276;48.392;9.950;2023-07-16T09:03:49;3.63;;;3.43;;
579;SDS011;276;48.392;9.950;2023-07-16T09:06:14;4.40;;;4.10;;
579;SDS011;276;48.392;9.950;2023-07-16T09:08:41;4.90;;;4.60;;
579;SDS011;276;48.392;9.950;2023-07-16T09:11:12;3.90;;;3.60;;
579;SDS011;276;48.392;9.950;2023-07-16T09:13:43;4.13;;;3.83;;
579;SDS011;276;48.392;9.950;2023-07-16T09:16:11;5.60;;;5.20;;
579;SDS011;276;48.392;9.950;2023-07-16T09:18:39;5.13;;;4.73;;
579;SDS011;276;48.392;9.950;2023-07-16T09:21:05;3.80;;;3.50;;
579;SDS011;276;48.392;9.950;2023-07-16T09:23:32;4.40;;;4.10;;
579;SDS011;276;48.392;9.950;2023-07-16T09:25:58;4.77;;;3.70;;
579;SDS011;276;48.392;9.950;2023-07-16T09:28:24;3.20;;;3.00;;
579;SDS011;276;48.392;9.950;2023-07-16T09:30:50;2.60;;;2.50;;
579;SDS011;276;48.392;9.950;2023-07-16T09:33:18;3.73;;;3.50;;
579;SDS011;276;48.392;9.950;2023-07-16T09:35:47;2.73;;;2.60;;
579;SDS011;276;48.392;9.950;2023-07-16T09:38:16;5.47;;;2.90;;
579;SDS011;276;48.392;9.950;2023-07-16T09:40:43;3.70;;;3.40;;
579;SDS011;276;48.392;9.950;2023-07-16T09:43:10;3.17;;;2.97;;
579;SDS011;276;48.392;9.950;2023-07-16T09:45:36;2.67;;;2.47;;
579;SDS011;276;48.392;9.950;2023-07-16T09:48:02;1.90;;;1.80;;
579;SDS011;276;48.392;9.950;2023-07-16T09:50:29;2.50;;;2.30;;
579;SDS011;276;48.392;9.950;2023-07-16T09:52:59;1.67;;;1.57;;
579;SDS011;276;48.392;9.950;2023-07-16T09:55:25;4.37;;;4.07;;
579;SDS011;276;48.392;9.950;2023-07-16T09:57:55;12.90;;;3.10;;
579;SDS011;276;48.392;9.950;2023-07-16T10:00:25;3.23;;;2.60;;
579;SDS011;276;48.392;9.950;2023-07-16T10:02:53;3.10;;;2.20;;
579;SDS011;276;48.392;9.950;2023-07-16T10:05:23;2.57;;;2.37;;
579;SDS011;276;48.392;9.950;2023-07-16T10:07:54;1.53;;;1.43;;
579;SDS011;276;48.392;9.950;2023-07-16T10:10:25;1.70;;;1.60;;
579;SDS011;276;48.392;9.950;2023-07-16T10:13:03;3.37;;;2.20;;
579;SDS011;276;48.392;9.950;2023-07-16T10:15:31;7.40;;;3.20;;
579;SDS011;276;48.392;9.950;2023-07-16T10:17:57;3.10;;;2.90;;
579;SDS011;276;48.392;9.950;2023-07-16T10:20:33;3.43;;;2.13;;
579;SDS011;276;48.392;9.950;2023-07-16T10:23:14;2.50;;;2.30;;
579;SDS011;276;48.392;9.950;2023-07-16T10:25:58;3.10;;;2.90;;
579;SDS011;276;48.392;9.950;2023-07-16T10:28:25;1.87;;;1.77;;
579;SDS011;276;48.392;9.950;2023-07-16T10:30:53;3.00;;;2.70;;
579;SDS011;276;48.392;9.950;2023-07-16T10:33:19;3.07;;;2.53;;
579;SDS011;276;48.392;9.950;2023-07-16T10:35:45;3.53;;;3.30;;
579;SDS011;276;48.392;9.950;2023-07-16T10:38:13;3.20;;;2.90;;
579;SDS011;276;48.392;9.950;2023-07-16T10:40:42;2.50;;;2.23;;
579;SDS011;276;48.392;9.950;2023-07-16T10:43:09;1.93;;;1.83;;
579;SDS011;276;48.392;9.950;2023-07-16T10:45:35;2.17;;;1.97;;
579;SDS011;276;48.392;9.950;2023-07-16T10:48:04;1.90;;;1.80;;
579;SDS011;276;48.392;9.950;2023-07-16T10:50:33;1.83;;;1.73;;
579;SDS011;276;48.392;9.950;2023-07-16T10:52:59;2.57;;;2.37;;
579;SDS011;276;48.392;9.950;2023-07-16T10:55:26;2.23;;;2.13;;
579;SDS011;276;48.392;9.950;2023-07-16T10:57:57;2.80;;;2.60;;
579;SDS011;276;48.392;9.950;2023-07-16T11:00:25;3.67;;;3.37;;
579;SDS011;276;48.392;9.950;2023-07-16T11:02:51;3.10;;;2.90;;
579;SDS011;276;48.392;9.950;2023-07-16T11:05:19;3.07;;;2.87;;
579;SDS011;276;48.392;9.950;2023-07-16T11:07:48;2.30;;;2.20;;
579;SDS011;276;48.392;9.950;2023-07-16T11:10:16;2.00;;;1.90;;
579;SDS011;276;48.392;9.950;2023-07-16T11:12:43;1.97;;;1.77;;
579;SDS011;276;48.392;9.950;2023-07-16T11:15:09;1.77;;;1.67;;
579;SDS011;276;48.392;9.950;2023-07-16T11:17:37;2.80;;;1.70;;
579;SDS011;276;48.392;9.950;2023-07-16T11:20:04;1.97;;;1.87;;
579;SDS011;276;48.392;9.950;2023-07-16T11:22:36;2.60;;;2.40;;
579;SDS011;276;48.392;9.950;2023-07-16T11:25:02;3.63;;;2.83;;
579;SDS011;276;48.392;9.950;2023-07-16T11:27:30;2.70;;;2.50;;
579;SDS011;276;48.392;9.950;2023-07-16T11:29:59;4.20;;;3.90;;
579;SDS011;276;48.392;9.950;2023-07-16T11:32:47;2.60;;;2.40;;
579;SDS011;276;48.392;9.950;2023-07-16T11:35:17;2.87;;;2.37;;
579;SDS011;276;48.392;9.950;2023-07-16T11:37:43;2.27;;;2.07;;
579;SDS011;276;48.392;9.950;2023-07-16T11:40:11;2.20;;;2.03;;
579;SDS011;276;48.392;9.950;2023-07-16T11:42:41;1.70;;;1.60;;
579;SDS011;276;48.392;9.950;2023-07-16T11:45:23;2.83;;;2.63;;
579;SDS011;276;48.392;9.950;2023-07-16T11:47:52;3.10;;;2.90;;
579;SDS011;276;48.392;9.950;2023-07-16T11:50:19;4.00;;;3.70;;
579;SDS011;276;48.392;9.950;2023-07-16T11:52:54;20.37;;;18.77;;
579;SDS011;276;48.392;9.950;2023-07-16T11:55:28;13.83;;;12.83;;
579;SDS011;276;48.392;9.950;2023-07-16T11:57:56;13.10;;;12.10;;
579;SDS011;276;48.392;9.950;2023-07-16T12:00:24;10.50;;;9.60;;
579;SDS011;276;48.392;9.950;2023-07-16T12:02:50;6.83;;;6.33;;
579;SDS011;276;48.392;9.950;2023-07-16T12:05:19;8.40;;;7.60;;
579;SDS011;276;48.392;9.950;2023-07-16T12:07:46;4.93;;;4.43;;
579;SDS011;276;48.392;9.950;2023-07-16T12:10:12;4.47;;;3.20;;
579;SDS011;276;48.392;9.950;2023-07-16T12:12:40;10.43;;;9.50;;
579;SDS011;276;48.392;9.950;2023-07-16T12:15:06;7.70;;;7.00;;
579;SDS011;276;48.392;9.950;2023-07-16T12:17:33;4.93;;;3.27;;
579;SDS011;276;48.392;9.950;2023-07-16T12:19:59;9.20;;;8.50;;
579;SDS011;276;48.392;9.950;2023-07-16T12:22:25;5.90;;;5.30;;
579;SDS011;276;48.392;9.950;2023-07-16T12:24:52;4.43;;;4.03;;
579;SDS011;276;48.392;9.950;2023-07-16T12:27:19;4.07;;;3.37;;
579;SDS011;276;48.392;9.950;2023-07-16T12:29:45;7.40;;;3.97;;
579;SDS011;276;48.392;9.950;2023-07-16T12:32:13;2.13;;;2.03;;
579;SDS011;276;48.392;9.950;2023-07-16T12:34:43;4.17;;;3.73;;
579;SDS011;276;48.392;9.950;2023-07-16T12:37:10;4.13;;;3.73;;
579;SDS011;276;48.392;9.950;2023-07-16T12:39:35;11.70;;;10.27;;
579;SDS011;276;48.392;9.950;2023-07-16T12:42:01;11.10;;;10.10;;
579;SDS011;276;48.392;9.950;2023-07-16T12:44:26;7.43;;;6.77;;
579;SDS011;276;48.392;9.950;2023-07-16T12:46:55;3.57;;;3.27;;
579;SDS011;276;48.392;9.950;2023-07-16T12:49:20;2.37;;;2.13;;
579;SDS011;276;48.392;9.950;2023-07-16T12:51:48;2.10;;;2.00;;
579;SDS011;276;48.392;9.950;2023-07-16T12:54:18;2.47;;;2.27;;
579;SDS011;276;48.392;9.950;2023-07-16T12:56:44;3.43;;;2.80;;
579;SDS011;276;48.392;9.950;2023-07-16T12:59:11;13.47;;;9.73;;
579;SDS011;276;48.392;9.950;2023-07-16T13:01:39;12.87;;;11.57;;
579;SDS011;276;48.392;9.950;2023-07-16T13:04:05;9.00;;;8.37;;
579;SDS011;276;48.392;9.950;2023-07-16T13:06:31;4.37;;;4.00;;
579;SDS011;276;48.392;9.950;2023-07-16T13:08:56;2.90;;;2.70;;
579;SDS011;276;48.392;9.950;2023-07-16T13:11:24;2.37;;;2.17;;
579;SDS011;276;48.392;9.950;2023-07-16T13:13:50;2.80;;;2.17;;
579;SDS011;276;48.392;9.950;2023-07-16T13:16:20;2.63;;;2.43;;
579;SDS011;276;48.392;9.950;2023-07-16T13:18:46;2.80;;;2.60;;
579;SDS011;276;48.392;9.950;2023-07-16T13:21:14;1.80;;;1.70;;
579;SDS011;276;48.392;9.950;2023-07-16T13:23:41;2.40;;;2.30;;
579;SDS011;276;48.392;9.950;2023-07-16T13:26:07;2.60;;;2.40;;
579;SDS011;276;48.392;9.950;2023-07-16T13:28:33;1.90;;;1.50;;
579;SDS011;276;48.392;9.950;2023-07-16T13:30:58;2.83;;;2.10;;
579;SDS011;276;48.392;9.950;2023-07-16T13:33:24;2.23;;;1.93;;
579;SDS011;276;48.392;9.950;2023-07-16T13:35:50;2.70;;;2.50;;
579;SDS011;276;48.392;9.950;2023-07-16T13:38:15;2.53;;;2.30;;
579;SDS011;276;48.392;9.950;2023-07-16T13:40:43;2.60;;;2.40;;
579;SDS011;276;48.392;9.950;2023-07-16T13:43:09;2.23;;;2.03;;
579;SDS011;276;48.392;9.950;2023-07-16T13:45:34;1.90;;;1.80;;
579;SDS011;276;48.392;9.950;2023-07-16T13:48:03;2.03;;;1.90;;
579;SDS011;276;48.392;9.950;2023-07-16T13:50:29;2.20;;;1.97;;
579;SDS011;276;48.392;9.950;2023-07-16T13:52:54;2.30;;;2.10;;
579;SDS011;276;48.392;9.950;2023-07-16T13:55:20;2.40;;;2.30;;
579;SDS011;276;48.392;9.950;2023-07-16T13:57:46;3.40;;;2.37;;
579;SDS011;276;48.392;9.950;2023-07-16T14:00:12;3.07;;;2.30;;
579;SDS011;276;48.392;9.950;2023-07-16T14:02:43;2.10;;;1.90;;
579;SDS011;276;48.392;9.950;2023-07-16T14:05:09;2.30;;;2.10;;
579;SDS011;276;48.392;9.950;2023-07-16T14:07:34;3.10;;;2.80;;
579;SDS011;276;48.392;9.950;2023-07-16T14:10:03;2.60;;;2.40;;
579;SDS011;276;48.392;9.950;2023-07-16T14:12:31;2.40;;;2.20;;
579;SDS011;276;48.392;9.950;2023-07-16T14:15:01;2.70;;;2.50;;
579;SDS011;276;48.392;9.950;2023-07-16T14:17:27;2.57;;;2.37;;
579;SDS011;276;48.392;9.950;2023-07-16T14:19:53;2.30;;;2.10;;
579;SDS011;276;48.392;9.950;2023-07-16T14:22:18;3.67;;;2.60;;
579;SDS011;276;48.392;9.950;2023-07-16T14:24:44;2.83;;;2.63;;
579;SDS011;276;48.392;9.950;2023-07-16T14:27:09;1.90;;;1.80;;
579;SDS011;276;48.392;9.950;2023-07-16T14:29:38;2.50;;;2.30;;
579;SDS011;276;48.392;9.950;2023-07-16T14:32:06;2.43;;;2.10;;
579;SDS011;276;48.392;9.950;2023-07-16T14:34:32;2.60;;;2.20;;
579;SDS011;276;48.392;9.950;2023-07-16T14:37:00;2.77;;;2.57;;
579;SDS011;276;48.392;9.950;2023-07-16T14:39:30;2.97;;;2.30;;
579;SDS011;276;48.392;9.950;2023-07-16T14:42:00;3.40;;;3.10;;
579;SDS011;276;48.392;9.950;2023-07-16T14:44:28;2.57;;;2.37;;
579;SDS011;276;48.392;9.950;2023-07-16T14:46:54;3.00;;;2.80;;
579;SDS011;276;48.392;9.950;2023-07-16T14:49:20;2.13;;;2.03;;
579;SDS011;276;48.392;9.950;2023-07-16T14:51:46;2.40;;;2.20;;
579;SDS011;276;48.392;9.950;2023-07-16T14:54:14;3.90;;;2.03;;
579;SDS011;276;48.392;9.950;2023-07-16T14:56:42;3.00;;;2.47;;
579;SDS011;276;48.392;9.950;2023-07-16T14:59:07;3.17;;;2.97;;
579;SDS011;276;48.392;9.950;2023-07-16T15:01:34;2.93;;;2.63;;
579;SDS011;276;48.392;9.950;2023-07-16T15:03:59;2.40;;;2.30;;
579;SDS011;276;48.392;9.950;2023-07-16T15:06:25;2.63;;;2.43;;
579;SDS011;276;48.392;9.950;2023-07-16T15:08:53;2.90;;;2.70;;
579;SDS011;276;48.392;9.950;2023-07-16T15:11:18;2.93;;;2.40;;
579;SDS011;276;48.392;9.950;2023-07-16T15:13:49;3.40;;;3.07;;
579;SDS011;276;48.392;9.950;2023-07-16T15:16:14;2.30;;;2.20;;
579;SDS011;276;48.392;9.950;2023-07-16T15:18:40;2.70;;;2.50;;
579;SDS011;276;48.392;9.950;2023-07-16T15:21:06;2.70;;;2.50;;
579;SDS011;276;48.392;9.950;2023-07-16T15:23:32;2.70;;;2.50;;
579;SDS011;276;48.392;9.950;2023-07-16T15:26:02;2.80;;;2.60;;
579;SDS011;276;48.392;9.950;2023-07-16T15:28:30;2.57;;;2.37;;
579;SDS011;276;48.392;9.950;2023-07-16T15:30:59;2.27;;;2.07;;
579;SDS011;276;48.392;9.950;2023-07-16T15:33:25;3.23;;;3.00;;
579;SDS011;276;48.392;9.950;2023-07-16T15:35:51;2.80;;;2.43;;
579;SDS011;276;48.392;9.950;2023-07-16T15:38:16;2.00;;;1.87;;
579;SDS011;276;48.392;9.950;2023-07-16T15:40:42;2.87;;;2.67;;
579;SDS011;276;48.392;9.950;2023-07-16T15:43:10;2.50;;;2.30;;
579;SDS011;276;48.392;9.950;2023-07-16T15:45:36;3.00;;;2.23;;
579;SDS011;276;48.392;9.950;2023-07-16T15:48:04;3.63;;;2.87;;
579;SDS011;276;48.392;9.950;2023-07-16T15:50:29;2.47;;;2.27;;